Porterville, Mississippi
Current Conditions -  °F | °C
As of 9:56 AM on Friday 28 Nov 2014 (Local Time) from KNMM Reporting Station
Clear Clear  
Wind Chill: 42°   Ceiling: Unl
Heat Index: 44°   Visibility: 10mi
Dew Point: 27°   Wind: 5mph
Humidity: 51%   Direction: 60°ENE
Pressure: 30.46"   Gusts: NA
Location:  32.69°N, 88.47°W
Report Text: KNMM 281556Z 06004KT 10SM CLR 07/M03 A3046 RMK AO2 SLP330 T00671028
Loading
Personal Weather Stations






























Interactive Weather Map New forecast layout! Learn more

10-Day Weather Forecast

Advertisements
Track Severe Weather on mobile